sensor_id;sensor_type;location;lat;lon;timestamp;P1;durP1;ratioP1;P2;durP2;ratioP2
4839;SDS011;2434;48.486;7.964;2022-10-19T00:01:38;7.23;;;3.60;;
4839;SDS011;2434;48.486;7.964;2022-10-19T00:04:06;3.70;;;3.27;;
4839;SDS011;2434;48.486;7.964;2022-10-19T00:06:35;3.97;;;3.20;;
4839;SDS011;2434;48.486;7.964;2022-10-19T00:09:06;12.13;;;3.20;;
4839;SDS011;2434;48.486;7.964;2022-10-19T00:11:37;4.83;;;3.10;;
4839;SDS011;2434;48.486;7.964;2022-10-19T00:14:08;3.93;;;2.80;;
4839;SDS011;2434;48.486;7.964;2022-10-19T00:16:39;9.30;;;3.23;;
4839;SDS011;2434;48.486;7.964;2022-10-19T00:19:10;12.80;;;2.30;;
4839;SDS011;2434;48.486;7.964;2022-10-19T00:21:41;9.00;;;2.80;;
4839;SDS011;2434;48.486;7.964;2022-10-19T00:24:11;5.70;;;3.03;;
4839;SDS011;2434;48.486;7.964;2022-10-19T00:26:39;12.90;;;3.60;;
4839;SDS011;2434;48.486;7.964;2022-10-19T00:29:09;4.40;;;2.50;;
4839;SDS011;2434;48.486;7.964;2022-10-19T00:31:38;9.57;;;2.97;;
4839;SDS011;2434;48.486;7.964;2022-10-19T00:34:07;12.23;;;2.90;;
4839;SDS011;2434;48.486;7.964;2022-10-19T00:36:37;9.13;;;2.93;;
4839;SDS011;2434;48.486;7.964;2022-10-19T00:39:12;13.90;;;3.43;;
4839;SDS011;2434;48.486;7.964;2022-10-19T00:41:42;6.60;;;4.63;;
4839;SDS011;2434;48.486;7.964;2022-10-19T00:47:22;7.57;;;2.53;;
4839;SDS011;2434;48.486;7.964;2022-10-19T00:49:58;6.93;;;2.90;;
4839;SDS011;2434;48.486;7.964;2022-10-19T00:52:30;10.00;;;2.60;;
4839;SDS011;2434;48.486;7.964;2022-10-19T00:55:01;9.13;;;2.93;;
4839;SDS011;2434;48.486;7.964;2022-10-19T00:57:30;2.57;;;2.37;;
4839;SDS011;2434;48.486;7.964;2022-10-19T00:59:59;13.53;;;2.47;;
4839;SDS011;2434;48.486;7.964;2022-10-19T01:02:29;9.60;;;2.67;;
4839;SDS011;2434;48.486;7.964;2022-10-19T01:04:58;6.40;;;2.43;;
4839;SDS011;2434;48.486;7.964;2022-10-19T01:07:28;8.57;;;2.60;;
4839;SDS011;2434;48.486;7.964;2022-10-19T01:09:57;6.63;;;3.00;;
4839;SDS011;2434;48.486;7.964;2022-10-19T01:12:33;8.13;;;2.53;;
4839;SDS011;2434;48.486;7.964;2022-10-19T01:15:27;6.57;;;3.40;;
4839;SDS011;2434;48.486;7.964;2022-10-19T01:18:03;2.97;;;2.77;;
4839;SDS011;2434;48.486;7.964;2022-10-19T01:20:54;5.80;;;4.20;;
4839;SDS011;2434;48.486;7.964;2022-10-19T01:32:39;27.90;;;6.80;;
4839;SDS011;2434;48.486;7.964;2022-10-19T01:35:19;47.37;;;9.50;;
4839;SDS011;2434;48.486;7.964;2022-10-19T01:37:55;72.23;;;10.13;;
4839;SDS011;2434;48.486;7.964;2022-10-19T01:40:33;42.20;;;9.80;;
4839;SDS011;2434;48.486;7.964;2022-10-19T01:43:09;62.87;;;10.30;;
4839;SDS011;2434;48.486;7.964;2022-10-19T01:45:46;36.23;;;9.67;;
4839;SDS011;2434;48.486;7.964;2022-10-19T01:48:20;30.57;;;9.50;;
4839;SDS011;2434;48.486;7.964;2022-10-19T01:50:56;13.53;;;9.30;;
4839;SDS011;2434;48.486;7.964;2022-10-19T01:53:27;32.70;;;9.60;;
4839;SDS011;2434;48.486;7.964;2022-10-19T01:55:59;21.47;;;9.23;;
4839;SDS011;2434;48.486;7.964;2022-10-19T01:58:32;33.37;;;9.60;;
4839;SDS011;2434;48.486;7.964;2022-10-19T02:01:06;54.00;;;9.70;;
4839;SDS011;2434;48.486;7.964;2022-10-19T02:03:39;34.53;;;9.97;;
4839;SDS011;2434;48.486;7.964;2022-10-19T02:06:09;42.50;;;10.33;;
4839;SDS011;2434;48.486;7.964;2022-10-19T02:08:42;22.17;;;11.03;;
4839;SDS011;2434;48.486;7.964;2022-10-19T02:11:13;11.30;;;9.23;;
4839;SDS011;2434;48.486;7.964;2022-10-19T02:13:41;13.37;;;10.00;;
4839;SDS011;2434;48.486;7.964;2022-10-19T02:16:15;19.03;;;11.00;;
4839;SDS011;2434;48.486;7.964;2022-10-19T02:18:46;18.50;;;11.27;;
4839;SDS011;2434;48.486;7.964;2022-10-19T02:21:17;42.87;;;11.50;;
4839;SDS011;2434;48.486;7.964;2022-10-19T02:23:46;89.37;;;11.00;;
4839;SDS011;2434;48.486;7.964;2022-10-19T02:26:19;11.97;;;9.70;;
4839;SDS011;2434;48.486;7.964;2022-10-19T02:28:48;51.53;;;10.57;;
4839;SDS011;2434;48.486;7.964;2022-10-19T02:31:21;83.63;;;10.83;;
4839;SDS011;2434;48.486;7.964;2022-10-19T02:33:55;62.30;;;11.13;;
4839;SDS011;2434;48.486;7.964;2022-10-19T02:36:24;8.67;;;7.77;;
4839;SDS011;2434;48.486;7.964;2022-10-19T02:38:53;54.97;;;9.13;;
4839;SDS011;2434;48.486;7.964;2022-10-19T02:41:23;7.47;;;6.77;;
4839;SDS011;2434;48.486;7.964;2022-10-19T02:43:59;8.63;;;6.73;;
4839;SDS011;2434;48.486;7.964;2022-10-19T02:46:36;17.13;;;7.10;;
4839;SDS011;2434;48.486;7.964;2022-10-19T02:49:09;31.90;;;8.70;;
4839;SDS011;2434;48.486;7.964;2022-10-19T02:51:39;22.40;;;7.37;;
4839;SDS011;2434;48.486;7.964;2022-10-19T02:54:22;26.03;;;9.00;;
4839;SDS011;2434;48.486;7.964;2022-10-19T02:56:51;20.63;;;8.40;;
4839;SDS011;2434;48.486;7.964;2022-10-19T02:59:19;8.20;;;7.27;;
4839;SDS011;2434;48.486;7.964;2022-10-19T03:01:49;14.83;;;7.63;;
4839;SDS011;2434;48.486;7.964;2022-10-19T03:04:18;24.37;;;8.10;;
4839;SDS011;2434;48.486;7.964;2022-10-19T03:06:46;7.80;;;7.10;;
4839;SDS011;2434;48.486;7.964;2022-10-19T03:09:15;7.33;;;6.63;;
4839;SDS011;2434;48.486;7.964;2022-10-19T03:11:43;6.30;;;5.70;;
4839;SDS011;2434;48.486;7.964;2022-10-19T03:14:12;6.53;;;5.20;;
4839;SDS011;2434;48.486;7.964;2022-10-19T03:16:40;5.90;;;5.33;;
4839;SDS011;2434;48.486;7.964;2022-10-19T03:19:10;6.17;;;5.57;;
4839;SDS011;2434;48.486;7.964;2022-10-19T03:21:39;5.70;;;5.23;;
4839;SDS011;2434;48.486;7.964;2022-10-19T03:24:07;5.77;;;5.20;;
4839;SDS011;2434;48.486;7.964;2022-10-19T03:26:36;6.30;;;5.70;;
4839;SDS011;2434;48.486;7.964;2022-10-19T03:29:04;5.47;;;4.97;;
4839;SDS011;2434;48.486;7.964;2022-10-19T03:31:33;5.47;;;4.97;;
4839;SDS011;2434;48.486;7.964;2022-10-19T03:34:02;9.60;;;5.80;;
4839;SDS011;2434;48.486;7.964;2022-10-19T03:36:32;5.33;;;4.83;;
4839;SDS011;2434;48.486;7.964;2022-10-19T03:39:02;12.43;;;5.87;;
4839;SDS011;2434;48.486;7.964;2022-10-19T03:41:34;6.27;;;5.70;;
4839;SDS011;2434;48.486;7.964;2022-10-19T03:44:03;6.57;;;5.97;;
4839;SDS011;2434;48.486;7.964;2022-10-19T03:46:33;5.97;;;5.37;;
4839;SDS011;2434;48.486;7.964;2022-10-19T03:49:02;8.50;;;7.60;;
4839;SDS011;2434;48.486;7.964;2022-10-19T03:51:33;8.93;;;6.60;;
4839;SDS011;2434;48.486;7.964;2022-10-19T03:54:03;9.77;;;6.37;;
4839;SDS011;2434;48.486;7.964;2022-10-19T03:56:33;7.63;;;6.07;;
4839;SDS011;2434;48.486;7.964;2022-10-19T03:59:03;11.10;;;7.20;;
4839;SDS011;2434;48.486;7.964;2022-10-19T04:01:33;8.70;;;6.43;;
4839;SDS011;2434;48.486;7.964;2022-10-19T04:04:04;8.60;;;6.70;;
4839;SDS011;2434;48.486;7.964;2022-10-19T04:06:35;11.30;;;7.47;;
4839;SDS011;2434;48.486;7.964;2022-10-19T04:09:06;13.90;;;8.23;;
4839;SDS011;2434;48.486;7.964;2022-10-19T04:11:36;14.60;;;8.17;;
4839;SDS011;2434;48.486;7.964;2022-10-19T04:14:05;8.57;;;6.90;;
4839;SDS011;2434;48.486;7.964;2022-10-19T04:16:33;15.33;;;7.47;;
4839;SDS011;2434;48.486;7.964;2022-10-19T04:19:02;13.20;;;8.13;;
4839;SDS011;2434;48.486;7.964;2022-10-19T04:21:31;13.53;;;8.70;;
4839;SDS011;2434;48.486;7.964;2022-10-19T04:24:03;9.23;;;7.47;;
4839;SDS011;2434;48.486;7.964;2022-10-19T04:26:37;14.37;;;8.70;;
4839;SDS011;2434;48.486;7.964;2022-10-19T04:29:07;9.70;;;6.23;;
4839;SDS011;2434;48.486;7.964;2022-10-19T04:31:38;8.53;;;7.40;;
4839;SDS011;2434;48.486;7.964;2022-10-19T04:34:09;12.13;;;7.43;;
4839;SDS011;2434;48.486;7.964;2022-10-19T04:36:38;11.33;;;7.80;;
4839;SDS011;2434;48.486;7.964;2022-10-19T04:39:08;17.97;;;7.30;;
4839;SDS011;2434;48.486;7.964;2022-10-19T04:41:36;12.80;;;6.30;;
4839;SDS011;2434;48.486;7.964;2022-10-19T04:44:05;8.23;;;6.30;;
4839;SDS011;2434;48.486;7.964;2022-10-19T04:46:38;15.70;;;7.00;;
4839;SDS011;2434;48.486;7.964;2022-10-19T04:49:06;12.20;;;7.60;;
4839;SDS011;2434;48.486;7.964;2022-10-19T04:51:35;13.30;;;6.73;;
4839;SDS011;2434;48.486;7.964;2022-10-19T04:54:10;11.60;;;6.40;;
4839;SDS011;2434;48.486;7.964;2022-10-19T04:56:38;14.00;;;8.87;;
4839;SDS011;2434;48.486;7.964;2022-10-19T04:59:08;13.07;;;8.63;;
4839;SDS011;2434;48.486;7.964;2022-10-19T05:01:36;19.77;;;9.83;;
4839;SDS011;2434;48.486;7.964;2022-10-19T05:04:12;18.93;;;9.80;;
4839;SDS011;2434;48.486;7.964;2022-10-19T05:06:41;14.83;;;8.57;;
4839;SDS011;2434;48.486;7.964;2022-10-19T05:09:11;14.77;;;9.93;;
4839;SDS011;2434;48.486;7.964;2022-10-19T05:11:39;20.83;;;10.53;;
4839;SDS011;2434;48.486;7.964;2022-10-19T05:14:07;17.57;;;8.87;;
4839;SDS011;2434;48.486;7.964;2022-10-19T05:16:36;14.00;;;8.50;;
4839;SDS011;2434;48.486;7.964;2022-10-19T05:19:04;14.73;;;8.27;;
4839;SDS011;2434;48.486;7.964;2022-10-19T05:21:32;14.43;;;7.40;;
4839;SDS011;2434;48.486;7.964;2022-10-19T05:24:01;19.77;;;9.27;;
4839;SDS011;2434;48.486;7.964;2022-10-19T05:26:34;11.10;;;7.10;;
4839;SDS011;2434;48.486;7.964;2022-10-19T05:29:02;9.93;;;5.70;;
4839;SDS011;2434;48.486;7.964;2022-10-19T05:31:31;7.40;;;4.70;;
4839;SDS011;2434;48.486;7.964;2022-10-19T05:34:00;8.07;;;6.00;;
4839;SDS011;2434;48.486;7.964;2022-10-19T05:36:30;9.93;;;5.47;;
4839;SDS011;2434;48.486;7.964;2022-10-19T05:39:01;9.87;;;5.57;;
4839;SDS011;2434;48.486;7.964;2022-10-19T05:41:30;7.63;;;5.17;;
4839;SDS011;2434;48.486;7.964;2022-10-19T05:44:00;8.40;;;6.57;;
4839;SDS011;2434;48.486;7.964;2022-10-19T05:46:30;8.87;;;6.50;;
4839;SDS011;2434;48.486;7.964;2022-10-19T05:48:59;8.13;;;6.17;;
4839;SDS011;2434;48.486;7.964;2022-10-19T05:51:27;11.23;;;6.70;;
4839;SDS011;2434;48.486;7.964;2022-10-19T05:53:56;10.30;;;7.57;;
4839;SDS011;2434;48.486;7.964;2022-10-19T05:56:25;12.70;;;7.10;;
4839;SDS011;2434;48.486;7.964;2022-10-19T05:58:55;9.87;;;7.37;;
4839;SDS011;2434;48.486;7.964;2022-10-19T06:01:28;12.10;;;8.17;;
4839;SDS011;2434;48.486;7.964;2022-10-19T06:03:57;12.90;;;8.00;;
4839;SDS011;2434;48.486;7.964;2022-10-19T06:06:26;15.53;;;8.00;;
4839;SDS011;2434;48.486;7.964;2022-10-19T06:08:55;13.80;;;8.87;;
4839;SDS011;2434;48.486;7.964;2022-10-19T06:11:25;11.03;;;7.90;;
4839;SDS011;2434;48.486;7.964;2022-10-19T06:13:56;12.50;;;7.70;;
4839;SDS011;2434;48.486;7.964;2022-10-19T06:16:31;13.20;;;8.10;;
4839;SDS011;2434;48.486;7.964;2022-10-19T06:19:00;10.33;;;7.00;;
4839;SDS011;2434;48.486;7.964;2022-10-19T06:21:29;15.37;;;6.83;;
4839;SDS011;2434;48.486;7.964;2022-10-19T06:23:59;10.00;;;7.07;;
4839;SDS011;2434;48.486;7.964;2022-10-19T06:26:29;9.40;;;7.40;;
4839;SDS011;2434;48.486;7.964;2022-10-19T06:28:59;8.57;;;6.60;;
4839;SDS011;2434;48.486;7.964;2022-10-19T06:31:30;9.03;;;7.00;;
4839;SDS011;2434;48.486;7.964;2022-10-19T06:34:04;10.93;;;7.57;;
4839;SDS011;2434;48.486;7.964;2022-10-19T06:36:57;11.20;;;7.80;;
4839;SDS011;2434;48.486;7.964;2022-10-19T06:40:12;10.33;;;7.53;;
4839;SDS011;2434;48.486;7.964;2022-10-19T06:42:59;13.00;;;6.73;;
4839;SDS011;2434;48.486;7.964;2022-10-19T06:45:44;12.50;;;7.23;;
4839;SDS011;2434;48.486;7.964;2022-10-19T06:48:24;10.10;;;7.60;;
4839;SDS011;2434;48.486;7.964;2022-10-19T06:51:19;13.97;;;7.83;;
4839;SDS011;2434;48.486;7.964;2022-10-19T06:57:33;9.60;;;6.80;;
4839;SDS011;2434;48.486;7.964;2022-10-19T07:00:18;7.50;;;6.50;;
4839;SDS011;2434;48.486;7.964;2022-10-19T07:02:46;8.80;;;7.70;;
4839;SDS011;2434;48.486;7.964;2022-10-19T07:05:16;9.93;;;7.50;;
4839;SDS011;2434;48.486;7.964;2022-10-19T07:07:45;11.30;;;8.87;;
4839;SDS011;2434;48.486;7.964;2022-10-19T07:10:13;14.40;;;7.40;;
4839;SDS011;2434;48.486;7.964;2022-10-19T07:12:42;10.43;;;7.93;;
4839;SDS011;2434;48.486;7.964;2022-10-19T07:15:10;8.00;;;7.20;;
4839;SDS011;2434;48.486;7.964;2022-10-19T07:17:43;14.03;;;8.90;;
4839;SDS011;2434;48.486;7.964;2022-10-19T07:20:12;11.17;;;7.53;;
4839;SDS011;2434;48.486;7.964;2022-10-19T07:22:45;9.43;;;6.90;;
4839;SDS011;2434;48.486;7.964;2022-10-19T07:25:13;12.73;;;8.00;;
4839;SDS011;2434;48.486;7.964;2022-10-19T07:27:42;14.00;;;8.60;;
4839;SDS011;2434;48.486;7.964;2022-10-19T07:30:10;11.50;;;8.23;;
4839;SDS011;2434;48.486;7.964;2022-10-19T07:32:49;12.10;;;8.73;;
4839;SDS011;2434;48.486;7.964;2022-10-19T07:35:18;14.37;;;9.43;;
4839;SDS011;2434;48.486;7.964;2022-10-19T07:37:48;15.20;;;9.30;;
4839;SDS011;2434;48.486;7.964;2022-10-19T07:40:16;21.00;;;10.57;;
4839;SDS011;2434;48.486;7.964;2022-10-19T07:42:47;23.70;;;11.50;;
4839;SDS011;2434;48.486;7.964;2022-10-19T07:45:15;14.93;;;10.40;;
4839;SDS011;2434;48.486;7.964;2022-10-19T07:47:44;21.63;;;11.27;;
4839;SDS011;2434;48.486;7.964;2022-10-19T07:50:12;18.87;;;12.07;;
4839;SDS011;2434;48.486;7.964;2022-10-19T07:52:41;22.37;;;13.43;;
4839;SDS011;2434;48.486;7.964;2022-10-19T07:55:11;25.77;;;13.67;;
4839;SDS011;2434;48.486;7.964;2022-10-19T07:57:39;21.03;;;14.30;;
4839;SDS011;2434;48.486;7.964;2022-10-19T08:00:10;19.60;;;13.80;;
4839;SDS011;2434;48.486;7.964;2022-10-19T08:02:40;22.80;;;13.70;;
4839;SDS011;2434;48.486;7.964;2022-10-19T08:05:28;29.10;;;15.07;;
4839;SDS011;2434;48.486;7.964;2022-10-19T08:07:58;30.63;;;14.83;;
4839;SDS011;2434;48.486;7.964;2022-10-19T08:10:28;23.20;;;15.60;;
4839;SDS011;2434;48.486;7.964;2022-10-19T08:12:57;18.93;;;12.93;;
4839;SDS011;2434;48.486;7.964;2022-10-19T08:15:27;20.60;;;13.10;;
4839;SDS011;2434;48.486;7.964;2022-10-19T08:17:56;19.93;;;13.80;;
4839;SDS011;2434;48.486;7.964;2022-10-19T08:20:26;18.30;;;11.93;;
4839;SDS011;2434;48.486;7.964;2022-10-19T08:22:54;19.47;;;13.03;;
4839;SDS011;2434;48.486;7.964;2022-10-19T08:25:24;19.30;;;12.37;;
4839;SDS011;2434;48.486;7.964;2022-10-19T08:27:54;23.03;;;12.87;;
4839;SDS011;2434;48.486;7.964;2022-10-19T08:30:23;19.77;;;12.90;;
4839;SDS011;2434;48.486;7.964;2022-10-19T08:32:51;14.77;;;11.07;;
4839;SDS011;2434;48.486;7.964;2022-10-19T08:35:20;15.97;;;11.87;;
4839;SDS011;2434;48.486;7.964;2022-10-19T08:37:48;18.43;;;13.33;;
4839;SDS011;2434;48.486;7.964;2022-10-19T08:40:18;22.70;;;13.83;;
4839;SDS011;2434;48.486;7.964;2022-10-19T08:42:52;17.77;;;12.80;;
4839;SDS011;2434;48.486;7.964;2022-10-19T08:45:36;20.37;;;14.00;;
4839;SDS011;2434;48.486;7.964;2022-10-19T08:51:02;24.23;;;16.93;;
4839;SDS011;2434;48.486;7.964;2022-10-19T08:53:36;22.40;;;15.93;;
4839;SDS011;2434;48.486;7.964;2022-10-19T08:56:14;25.50;;;15.80;;
4839;SDS011;2434;48.486;7.964;2022-10-19T08:59:15;20.53;;;14.93;;
4839;SDS011;2434;48.486;7.964;2022-10-19T09:01:50;22.50;;;15.17;;
4839;SDS011;2434;48.486;7.964;2022-10-19T09:04:22;25.47;;;15.70;;
4839;SDS011;2434;48.486;7.964;2022-10-19T09:06:57;29.27;;;17.47;;
4839;SDS011;2434;48.486;7.964;2022-10-19T09:09:38;32.53;;;17.17;;
4839;SDS011;2434;48.486;7.964;2022-10-19T09:12:11;24.27;;;14.00;;
4839;SDS011;2434;48.486;7.964;2022-10-19T09:14:46;25.37;;;16.27;;
4839;SDS011;2434;48.486;7.964;2022-10-19T09:17:21;25.47;;;16.60;;
4839;SDS011;2434;48.486;7.964;2022-10-19T09:19:51;25.60;;;16.50;;
4839;SDS011;2434;48.486;7.964;2022-10-19T09:22:20;26.60;;;17.07;;
4839;SDS011;2434;48.486;7.964;2022-10-19T09:24:54;25.47;;;15.93;;
4839;SDS011;2434;48.486;7.964;2022-10-19T09:27:28;22.50;;;15.47;;
4839;SDS011;2434;48.486;7.964;2022-10-19T09:30:03;28.03;;;16.40;;
4839;SDS011;2434;48.486;7.964;2022-10-19T09:32:33;26.20;;;16.47;;
4839;SDS011;2434;48.486;7.964;2022-10-19T09:35:04;23.30;;;15.97;;
4839;SDS011;2434;48.486;7.964;2022-10-19T09:37:46;24.10;;;15.47;;
4839;SDS011;2434;48.486;7.964;2022-10-19T09:40:16;24.70;;;15.27;;
4839;SDS011;2434;48.486;7.964;2022-10-19T09:42:46;24.40;;;16.83;;
4839;SDS011;2434;48.486;7.964;2022-10-19T09:45:28;22.47;;;15.20;;
4839;SDS011;2434;48.486;7.964;2022-10-19T09:48:01;24.77;;;15.80;;
4839;SDS011;2434;48.486;7.964;2022-10-19T09:50:41;21.00;;;15.80;;
4839;SDS011;2434;48.486;7.964;2022-10-19T09:53:14;21.37;;;14.93;;
4839;SDS011;2434;48.486;7.964;2022-10-19T09:55:46;26.97;;;16.93;;
4839;SDS011;2434;48.486;7.964;2022-10-19T09:58:18;26.20;;;17.20;;
4839;SDS011;2434;48.486;7.964;2022-10-19T10:00:49;31.10;;;17.67;;
4839;SDS011;2434;48.486;7.964;2022-10-19T10:03:21;26.07;;;17.30;;
4839;SDS011;2434;48.486;7.964;2022-10-19T10:05:52;26.57;;;17.70;;
4839;SDS011;2434;48.486;7.964;2022-10-19T10:08:24;30.10;;;16.40;;
4839;SDS011;2434;48.486;7.964;2022-10-19T10:10:58;25.03;;;17.30;;
4839;SDS011;2434;48.486;7.964;2022-10-19T10:13:37;27.03;;;15.90;;
4839;SDS011;2434;48.486;7.964;2022-10-19T10:16:09;28.83;;;18.17;;
4839;SDS011;2434;48.486;7.964;2022-10-19T10:18:43;28.17;;;17.40;;
4839;SDS011;2434;48.486;7.964;2022-10-19T10:21:19;24.27;;;16.40;;
4839;SDS011;2434;48.486;7.964;2022-10-19T10:23:58;26.40;;;17.20;;
4839;SDS011;2434;48.486;7.964;2022-10-19T10:26:31;30.50;;;18.80;;
4839;SDS011;2434;48.486;7.964;2022-10-19T10:29:09;33.47;;;20.17;;
4839;SDS011;2434;48.486;7.964;2022-10-19T10:31:46;36.37;;;20.03;;
4839;SDS011;2434;48.486;7.964;2022-10-19T10:34:21;32.47;;;19.07;;
4839;SDS011;2434;48.486;7.964;2022-10-19T10:37:19;29.13;;;18.60;;
4839;SDS011;2434;48.486;7.964;2022-10-19T10:39:50;32.40;;;17.83;;
4839;SDS011;2434;48.486;7.964;2022-10-19T10:42:26;28.03;;;18.60;;
4839;SDS011;2434;48.486;7.964;2022-10-19T10:44:58;27.00;;;16.87;;
4839;SDS011;2434;48.486;7.964;2022-10-19T10:47:28;28.63;;;19.60;;
4839;SDS011;2434;48.486;7.964;2022-10-19T10:49:59;33.00;;;18.87;;
4839;SDS011;2434;48.486;7.964;2022-10-19T10:52:32;27.90;;;19.90;;
4839;SDS011;2434;48.486;7.964;2022-10-19T10:55:09;35.30;;;21.20;;
4839;SDS011;2434;48.486;7.964;2022-10-19T10:57:45;27.30;;;19.40;;
4839;SDS011;2434;48.486;7.964;2022-10-19T11:01:04;32.47;;;21.50;;
4839;SDS011;2434;48.486;7.964;2022-10-19T11:03:35;40.97;;;23.47;;
4839;SDS011;2434;48.486;7.964;2022-10-19T11:06:10;37.87;;;23.67;;
4839;SDS011;2434;48.486;7.964;2022-10-19T11:08:43;35.30;;;22.53;;
4839;SDS011;2434;48.486;7.964;2022-10-19T11:11:16;41.50;;;24.13;;
4839;SDS011;2434;48.486;7.964;2022-10-19T11:13:49;31.93;;;20.73;;
4839;SDS011;2434;48.486;7.964;2022-10-19T11:16:25;33.80;;;21.80;;
4839;SDS011;2434;48.486;7.964;2022-10-19T11:19:06;35.10;;;23.20;;
4839;SDS011;2434;48.486;7.964;2022-10-19T11:22:00;45.40;;;25.67;;
4839;SDS011;2434;48.486;7.964;2022-10-19T11:24:56;42.33;;;25.63;;
4839;SDS011;2434;48.486;7.964;2022-10-19T11:27:37;43.73;;;25.50;;
4839;SDS011;2434;48.486;7.964;2022-10-19T11:30:12;43.10;;;25.17;;
4839;SDS011;2434;48.486;7.964;2022-10-19T11:32:45;39.43;;;23.53;;
4839;SDS011;2434;48.486;7.964;2022-10-19T11:35:37;32.00;;;20.50;;
4839;SDS011;2434;48.486;7.964;2022-10-19T11:41:13;28.50;;;19.67;;
4839;SDS011;2434;48.486;7.964;2022-10-19T11:43:53;26.77;;;19.63;;
4839;SDS011;2434;48.486;7.964;2022-10-19T11:46:32;34.30;;;21.60;;
4839;SDS011;2434;48.486;7.964;2022-10-19T11:49:11;37.53;;;21.33;;
4839;SDS011;2434;48.486;7.964;2022-10-19T11:51:48;27.07;;;18.80;;
4839;SDS011;2434;48.486;7.964;2022-10-19T11:54:35;37.97;;;19.97;;
4839;SDS011;2434;48.486;7.964;2022-10-19T11:57:14;31.13;;;20.00;;
4839;SDS011;2434;48.486;7.964;2022-10-19T11:59:58;29.70;;;20.80;;
4839;SDS011;2434;48.486;7.964;2022-10-19T12:03:06;32.57;;;20.80;;
4839;SDS011;2434;48.486;7.964;2022-10-19T12:05:57;24.73;;;18.77;;
4839;SDS011;2434;48.486;7.964;2022-10-19T12:08:37;24.37;;;18.07;;
4839;SDS011;2434;48.486;7.964;2022-10-19T12:11:23;25.00;;;18.13;;
4839;SDS011;2434;48.486;7.964;2022-10-19T12:13:58;29.10;;;18.63;;
4839;SDS011;2434;48.486;7.964;2022-10-19T12:16:33;28.73;;;17.90;;
4839;SDS011;2434;48.486;7.964;2022-10-19T12:19:04;24.40;;;17.93;;
4839;SDS011;2434;48.486;7.964;2022-10-19T12:21:41;31.57;;;18.10;;
4839;SDS011;2434;48.486;7.964;2022-10-19T12:24:13;26.20;;;18.47;;
4839;SDS011;2434;48.486;7.964;2022-10-19T12:26:45;24.17;;;18.60;;
4839;SDS011;2434;48.486;7.964;2022-10-19T12:29:15;27.93;;;18.60;;
4839;SDS011;2434;48.486;7.964;2022-10-19T12:31:48;25.23;;;17.27;;
4839;SDS011;2434;48.486;7.964;2022-10-19T12:34:23;25.83;;;18.40;;
4839;SDS011;2434;48.486;7.964;2022-10-19T12:36:59;23.60;;;17.40;;
4839;SDS011;2434;48.486;7.964;2022-10-19T12:39:34;25.00;;;18.00;;
4839;SDS011;2434;48.486;7.964;2022-10-19T12:42:12;23.00;;;17.37;;
4839;SDS011;2434;48.486;7.964;2022-10-19T12:47:40;22.77;;;17.47;;
4839;SDS011;2434;48.486;7.964;2022-10-19T12:53:44;32.73;;;17.30;;
4839;SDS011;2434;48.486;7.964;2022-10-19T12:56:17;21.60;;;16.20;;
4839;SDS011;2434;48.486;7.964;2022-10-19T12:58:49;22.27;;;16.10;;
4839;SDS011;2434;48.486;7.964;2022-10-19T13:01:24;15.53;;;13.13;;
4839;SDS011;2434;48.486;7.964;2022-10-19T13:04:05;20.53;;;13.53;;
4839;SDS011;2434;48.486;7.964;2022-10-19T13:06:37;15.77;;;12.50;;
4839;SDS011;2434;48.486;7.964;2022-10-19T13:09:19;18.90;;;13.57;;
4839;SDS011;2434;48.486;7.964;2022-10-19T13:14:56;16.13;;;11.30;;
4839;SDS011;2434;48.486;7.964;2022-10-19T13:17:38;17.50;;;9.30;;
4839;SDS011;2434;48.486;7.964;2022-10-19T13:29:22;12.00;;;8.10;;
4839;SDS011;2434;48.486;7.964;2022-10-19T13:31:52;11.50;;;8.40;;
4839;SDS011;2434;48.486;7.964;2022-10-19T13:34:22;8.33;;;7.53;;
4839;SDS011;2434;48.486;7.964;2022-10-19T13:36:58;13.93;;;8.90;;
4839;SDS011;2434;48.486;7.964;2022-10-19T13:39:27;11.00;;;7.37;;
4839;SDS011;2434;48.486;7.964;2022-10-19T13:41:56;9.80;;;6.83;;
4839;SDS011;2434;48.486;7.964;2022-10-19T13:44:28;11.03;;;8.47;;
4839;SDS011;2434;48.486;7.964;2022-10-19T13:47:10;11.03;;;7.30;;
4839;SDS011;2434;48.486;7.964;2022-10-19T13:53:04;11.03;;;7.70;;
4839;SDS011;2434;48.486;7.964;2022-10-19T13:55:45;9.37;;;7.00;;
4839;SDS011;2434;48.486;7.964;2022-10-19T14:01:28;7.90;;;7.10;;
4839;SDS011;2434;48.486;7.964;2022-10-19T14:04:19;8.03;;;7.23;;
4839;SDS011;2434;48.486;7.964;2022-10-19T14:06:55;10.20;;;7.90;;
4839;SDS011;2434;48.486;7.964;2022-10-19T14:09:31;12.60;;;7.07;;
4839;SDS011;2434;48.486;7.964;2022-10-19T14:12:16;10.80;;;7.20;;
4839;SDS011;2434;48.486;7.964;2022-10-19T14:14:49;10.27;;;7.43;;
4839;SDS011;2434;48.486;7.964;2022-10-19T14:17:21;11.33;;;7.40;;
4839;SDS011;2434;48.486;7.964;2022-10-19T14:19:51;8.47;;;7.10;;
4839;SDS011;2434;48.486;7.964;2022-10-19T14:22:23;8.10;;;7.30;;
4839;SDS011;2434;48.486;7.964;2022-10-19T14:24:59;11.03;;;7.33;;
4839;SDS011;2434;48.486;7.964;2022-10-19T14:27:30;9.63;;;6.13;;
4839;SDS011;2434;48.486;7.964;2022-10-19T14:30:00;6.20;;;5.37;;
4839;SDS011;2434;48.486;7.964;2022-10-19T14:32:32;7.10;;;5.00;;
4839;SDS011;2434;48.486;7.964;2022-10-19T14:35:03;8.67;;;3.07;;
4839;SDS011;2434;48.486;7.964;2022-10-19T14:37:43;8.00;;;2.97;;
4839;SDS011;2434;48.486;7.964;2022-10-19T14:40:22;6.63;;;3.00;;
4839;SDS011;2434;48.486;7.964;2022-10-19T14:42:54;3.93;;;3.23;;
4839;SDS011;2434;48.486;7.964;2022-10-19T14:45:23;3.43;;;2.97;;
4839;SDS011;2434;48.486;7.964;2022-10-19T14:47:56;2.83;;;2.60;;
4839;SDS011;2434;48.486;7.964;2022-10-19T14:50:27;5.13;;;2.73;;
4839;SDS011;2434;48.486;7.964;2022-10-19T14:53:03;3.40;;;3.10;;
4839;SDS011;2434;48.486;7.964;2022-10-19T14:55:45;3.70;;;3.40;;
4839;SDS011;2434;48.486;7.964;2022-10-19T14:58:19;3.23;;;2.63;;
4839;SDS011;2434;48.486;7.964;2022-10-19T15:00:55;4.27;;;2.33;;
4839;SDS011;2434;48.486;7.964;2022-10-19T15:03:26;2.70;;;2.50;;
4839;SDS011;2434;48.486;7.964;2022-10-19T15:05:56;3.70;;;2.70;;
4839;SDS011;2434;48.486;7.964;2022-10-19T15:08:30;4.30;;;2.80;;
4839;SDS011;2434;48.486;7.964;2022-10-19T15:11:05;3.10;;;2.83;;
4839;SDS011;2434;48.486;7.964;2022-10-19T15:13:39;2.90;;;2.70;;
4839;SDS011;2434;48.486;7.964;2022-10-19T15:18:57;3.07;;;2.83;;
4839;SDS011;2434;48.486;7.964;2022-10-19T15:21:30;3.10;;;2.80;;
4839;SDS011;2434;48.486;7.964;2022-10-19T15:24:06;3.27;;;3.07;;
4839;SDS011;2434;48.486;7.964;2022-10-19T15:26:48;6.63;;;2.70;;
4839;SDS011;2434;48.486;7.964;2022-10-19T15:29:33;5.63;;;2.30;;
4839;SDS011;2434;48.486;7.964;2022-10-19T15:32:11;3.17;;;2.87;;
4839;SDS011;2434;48.486;7.964;2022-10-19T15:34:43;5.13;;;3.67;;
4839;SDS011;2434;48.486;7.964;2022-10-19T15:37:15;6.43;;;3.70;;
4839;SDS011;2434;48.486;7.964;2022-10-19T15:39:47;8.27;;;2.63;;
4839;SDS011;2434;48.486;7.964;2022-10-19T15:42:20;5.67;;;2.87;;
4839;SDS011;2434;48.486;7.964;2022-10-19T15:45:02;5.43;;;2.77;;
4839;SDS011;2434;48.486;7.964;2022-10-19T15:47:31;3.80;;;2.50;;
4839;SDS011;2434;48.486;7.964;2022-10-19T15:50:07;3.37;;;2.50;;
4839;SDS011;2434;48.486;7.964;2022-10-19T15:52:58;3.17;;;2.87;;
4839;SDS011;2434;48.486;7.964;2022-10-19T15:55:26;12.47;;;3.27;;
4839;SDS011;2434;48.486;7.964;2022-10-19T15:57:57;2.97;;;2.70;;
4839;SDS011;2434;48.486;7.964;2022-10-19T16:00:26;3.13;;;2.87;;
4839;SDS011;2434;48.486;7.964;2022-10-19T16:02:56;3.63;;;3.23;;
4839;SDS011;2434;48.486;7.964;2022-10-19T16:05:26;12.47;;;3.17;;
4839;SDS011;2434;48.486;7.964;2022-10-19T16:07:55;3.83;;;3.00;;
4839;SDS011;2434;48.486;7.964;2022-10-19T16:10:26;7.90;;;3.03;;
4839;SDS011;2434;48.486;7.964;2022-10-19T16:12:55;2.67;;;2.53;;
4839;SDS011;2434;48.486;7.964;2022-10-19T16:15:24;3.93;;;3.37;;
4839;SDS011;2434;48.486;7.964;2022-10-19T16:17:53;3.97;;;2.50;;
4839;SDS011;2434;48.486;7.964;2022-10-19T16:20:24;2.50;;;2.30;;
4839;SDS011;2434;48.486;7.964;2022-10-19T16:22:55;7.93;;;2.83;;
4839;SDS011;2434;48.486;7.964;2022-10-19T16:25:24;3.43;;;2.80;;
4839;SDS011;2434;48.486;7.964;2022-10-19T16:27:52;3.60;;;2.70;;